Time;durP1;ratioP1;P1;durP2;ratioP2;P2;SDS_P1;SDS_P2;PMS_P1;PMS_P2;Temp;Humidity;BMP_temperature;BMP_pressure;BME280_temperature;BME280_humidity;BME280_pressure;Samples;Min_cycle;Max_cycle;Signal;HPM_P1;HPM_P2
2023/12/07 00:01:14;;;;;;;26.40;12.27;;;;;;;2.15;100.00;101481.16;6230137;28;20049;-74
2023/12/07 00:04:16;;;;;;;25.48;11.90;;;;;;;2.19;100.00;101482.00;6253876;28;20053;-74
2023/12/07 00:07:17;;;;;;;24.52;11.43;;;;;;;2.19;100.00;101484.59;6254286;28;20052;-76
2023/12/07 00:10:20;;;;;;;21.95;10.60;;;;;;;2.25;100.00;101484.53;6246212;28;20056;-75
2023/12/07 00:13:21;;;;;;;24.20;11.73;;;;;;;2.28;100.00;101489.72;6248770;28;20045;-74
2023/12/07 00:16:22;;;;;;;23.65;12.38;;;;;;;2.31;100.00;101483.63;6253542;28;20045;-75
2023/12/07 00:19:24;;;;;;;23.52;10.68;;;;;;;2.27;100.00;101485.38;6254058;28;20060;-74
2023/12/07 00:22:26;;;;;;;21.83;10.18;;;;;;;2.21;100.00;101486.28;6253448;28;20074;-75
2023/12/07 00:25:29;;;;;;;25.15;10.80;;;;;;;2.29;100.00;101484.50;6253325;28;20130;-75
2023/12/07 00:28:30;;;;;;;20.15;10.20;;;;;;;2.32;100.00;101487.94;6253700;28;20057;-73
2023/12/07 00:31:31;;;;;;;24.15;11.45;;;;;;;2.34;100.00;101491.41;6253378;28;20131;-75
2023/12/07 00:34:33;;;;;;;20.20;9.85;;;;;;;2.25;100.00;101490.59;6253195;28;20194;-75
2023/12/07 00:37:34;;;;;;;18.48;10.02;;;;;;;2.27;100.00;101495.75;6253136;28;20053;-74
2023/12/07 00:40:39;;;;;;;18.27;9.50;;;;;;;2.21;100.00;101482.84;6241250;28;20354;-74
2023/12/07 00:43:41;;;;;;;21.20;10.40;;;;;;;2.17;100.00;101491.50;6249263;28;20037;-74
2023/12/07 00:46:42;;;;;;;25.50;9.82;;;;;;;2.28;100.00;101494.91;6253278;28;20053;-74
2023/12/07 00:49:43;;;;;;;21.60;10.35;;;;;;;2.23;100.00;101494.94;6251777;28;20084;-74
2023/12/07 00:52:45;;;;;;;22.75;9.85;;;;;;;2.25;100.00;101503.56;6253199;28;20448;-74
2023/12/07 00:55:47;;;;;;;22.02;10.48;;;;;;;2.24;100.00;101507.03;6252512;28;20096;-74
2023/12/07 00:58:49;;;;;;;21.92;10.52;;;;;;;2.29;100.00;101507.84;6252678;28;20079;-75
2023/12/07 01:01:50;;;;;;;21.25;9.43;;;;;;;2.33;100.00;101518.22;6252850;28;20098;-75
2023/12/07 01:04:51;;;;;;;18.55;10.18;;;;;;;2.39;100.00;101524.19;6252425;28;20065;-76
2023/12/07 01:07:53;;;;;;;23.08;10.10;;;;;;;2.36;100.00;101521.63;6252615;28;20442;-73
2023/12/07 01:10:55;;;;;;;18.40;9.35;;;;;;;2.37;100.00;101523.38;6252557;28;20045;-74
2023/12/07 01:13:57;;;;;;;21.10;9.98;;;;;;;2.36;100.00;101534.59;6252542;28;20049;-74
2023/12/07 01:16:58;;;;;;;28.17;10.35;;;;;;;2.39;100.00;101531.13;6252193;28;20049;-74
2023/12/07 01:19:59;;;;;;;23.50;11.10;;;;;;;2.39;100.00;101531.97;6252465;28;20056;-74
2023/12/07 01:23:01;;;;;;;22.52;10.73;;;;;;;2.37;100.00;101538.94;6251820;28;20358;-74
2023/12/07 01:26:04;;;;;;;19.95;9.30;;;;;;;2.40;100.00;101546.66;6252058;28;20057;-74
2023/12/07 01:29:05;;;;;;;26.55;11.25;;;;;;;2.42;100.00;101547.53;6252112;28;20350;-74
2023/12/07 01:32:07;;;;;;;20.50;10.35;;;;;;;2.45;100.00;101550.13;6251827;28;20061;-74
2023/12/07 01:35:09;;;;;;;20.05;10.00;;;;;;;2.46;100.00;101551.84;6251820;28;20369;-74
2023/12/07 01:38:10;;;;;;;26.67;11.23;;;;;;;2.49;100.00;101550.94;6251748;28;20056;-74
2023/12/07 01:41:13;;;;;;;18.60;9.85;;;;;;;2.47;100.00;101552.69;6251948;28;20434;-75
2023/12/07 01:44:14;;;;;;;22.65;9.50;;;;;;;2.47;100.00;101552.69;6251573;28;20041;-73
2023/12/07 01:47:16;;;;;;;24.75;10.57;;;;;;;2.43;100.00;101556.16;6251906;28;20045;-74
2023/12/07 01:50:23;;;;;;;19.58;9.82;;;;;;;2.43;100.00;101549.25;6251739;28;20472;-74
2023/12/07 01:53:27;;;;;;;21.02;10.07;;;;;;;2.47;100.00;101552.69;6251470;28;20056;-75
2023/12/07 01:56:31;;;;;;;19.15;10.07;;;;;;;2.39;100.00;101551.88;6251674;28;20046;-75
2023/12/07 01:59:33;;;;;;;21.77;10.10;;;;;;;2.43;100.00;101549.25;6251717;28;20060;-74
2023/12/07 02:02:34;;;;;;;17.77;9.75;;;;;;;2.42;100.00;101554.47;6251006;28;20354;-74
2023/12/07 02:05:37;;;;;;;19.55;9.57;;;;;;;2.36;100.00;101555.34;6250833;28;20052;-75
2023/12/07 02:08:41;;;;;;;20.02;10.27;;;;;;;2.34;100.00;101566.59;6251258;28;20461;-74
2023/12/07 02:11:43;;;;;;;23.77;11.15;;;;;;;2.42;100.00;101557.91;6249865;28;20081;-74
2023/12/07 02:14:45;;;;;;;18.63;9.45;;;;;;;2.48;100.00;101564.78;6250821;28;20053;-75
2023/12/07 02:17:53;;;;;;;22.25;10.65;;;;;;;2.52;100.00;101562.16;6250940;28;20053;-75
2023/12/07 02:21:02;;;;;;;25.50;10.73;;;;;;;2.51;100.00;101565.63;6251064;28;20061;-75
2023/12/07 02:24:04;;;;;;;21.35;10.48;;;;;;;2.54;100.00;101568.22;6250639;28;20049;-75
2023/12/07 02:27:06;;;;;;;21.70;10.80;;;;;;;2.44;100.00;101566.53;6250838;28;20076;-75
2023/12/07 02:30:09;;;;;;;19.35;9.40;;;;;;;2.44;100.00;101568.25;6250897;28;20457;-75
2023/12/07 02:33:11;;;;;;;23.73;10.43;;;;;;;2.41;100.00;101563.97;6250651;28;20045;-74
2023/12/07 02:36:16;;;;;;;20.85;10.93;;;;;;;2.47;100.00;101565.66;6250414;28;20053;-75
2023/12/07 02:39:18;;;;;;;19.73;10.52;;;;;;;2.47;100.00;101565.66;6250489;28;20049;-75
2023/12/07 02:42:22;;;;;;;24.33;10.73;;;;;;;2.48;100.00;101572.56;6249150;28;20049;-73
2023/12/07 02:45:25;;;;;;;25.05;11.05;;;;;;;2.49;100.00;101574.28;6250390;28;20049;-74
2023/12/07 02:48:27;;;;;;;24.98;11.18;;;;;;;2.52;100.00;101571.69;6250337;28;20140;-74
2023/12/07 02:51:28;;;;;;;23.15;10.18;;;;;;;2.52;100.00;101569.06;6250279;28;20128;-74
2023/12/07 02:54:29;;;;;;;26.35;9.50;;;;;;;2.60;100.00;101569.03;6246468;28;20038;-74
2023/12/07 02:57:33;;;;;;;20.63;9.90;;;;;;;2.44;100.00;101566.53;6248770;28;20048;-74
2023/12/07 03:00:34;;;;;;;24.65;11.40;;;;;;;2.42;100.00;101572.63;6250165;28;20350;-76
2023/12/07 03:03:38;;;;;;;22.60;9.90;;;;;;;2.39;100.00;101580.41;6249831;28;20038;-74
2023/12/07 03:06:39;;;;;;;26.92;10.18;;;;;;;2.40;100.00;101577.78;6249516;28;20052;-74
2023/12/07 03:09:41;;;;;;;18.75;10.00;;;;;;;2.42;100.00;101577.81;6242759;28;20049;-73
2023/12/07 03:12:43;;;;;;;20.92;9.80;;;;;;;2.41;100.00;101584.72;6236819;28;20058;-75
2023/12/07 03:15:45;;;;;;;16.00;8.23;;;;;;;2.44;100.00;101591.59;6252839;28;20052;-74
2023/12/07 03:18:46;;;;;;;17.55;8.35;;;;;;;2.40;100.00;101582.13;6253049;28;20054;-74
2023/12/07 03:21:47;;;;;;;17.98;9.45;;;;;;;2.44;100.00;101591.59;6254444;28;20464;-74
2023/12/07 03:24:52;;;;;;;22.40;11.00;;;;;;;2.42;100.00;101585.59;6253036;28;20045;-73
2023/12/07 03:27:54;;;;;;;22.33;10.45;;;;;;;2.48;100.00;101588.13;6244238;28;20054;-73
2023/12/07 03:30:56;;;;;;;21.85;9.25;;;;;;;2.45;100.00;101585.53;6253325;28;20045;-75
2023/12/07 03:33:59;;;;;;;27.52;11.02;;;;;;;2.45;100.00;101593.31;6254440;28;20052;-74
2023/12/07 03:37:00;;;;;;;18.77;8.75;;;;;;;2.46;100.00;101590.75;6251626;28;20098;-76
2023/12/07 03:40:02;;;;;;;20.30;10.05;;;;;;;2.45;100.00;101596.81;6254543;28;20049;-74
2023/12/07 03:43:05;;;;;;;20.60;8.85;;;;;;;2.50;100.00;101594.19;6252782;28;20353;-74
2023/12/07 03:46:08;;;;;;;19.65;9.02;;;;;;;2.49;100.00;101603.66;6246881;28;20056;-74
2023/12/07 03:49:09;;;;;;;25.73;10.73;;;;;;;2.46;100.00;101598.53;6254604;28;20081;-74
2023/12/07 03:52:10;;;;;;;20.67;10.13;;;;;;;2.53;100.00;101599.34;6251346;28;20362;-75
2023/12/07 03:55:12;;;;;;;22.13;8.95;;;;;;;2.41;100.00;101597.69;6252802;28;20057;-74
2023/12/07 03:58:14;;;;;;;20.00;8.93;;;;;;;2.46;100.00;101602.84;6254098;28;20049;-74
2023/12/07 04:01:16;;;;;;;19.60;9.43;;;;;;;2.46;100.00;101600.25;6255093;28;20438;-74
2023/12/07 04:04:17;;;;;;;22.27;10.50;;;;;;;2.50;100.00;101602.81;6253220;28;20472;-75
2023/12/07 04:07:18;;;;;;;17.15;8.82;;;;;;;2.51;100.00;101611.47;6250868;28;20057;-74
2023/12/07 04:10:20;;;;;;;22.20;9.45;;;;;;;2.46;100.00;101614.09;6252902;28;20057;-74
2023/12/07 04:13:22;;;;;;;19.92;9.98;;;;;;;2.46;100.00;101611.50;6252822;28;20346;-74
2023/12/07 04:16:24;;;;;;;27.98;11.32;;;;;;;2.51;100.00;101614.91;6248616;28;20369;-74
2023/12/07 04:19:25;;;;;;;21.67;9.85;;;;;;;2.61;100.00;101618.31;6252778;28;20426;-75
2023/12/07 04:22:26;;;;;;;20.20;10.52;;;;;;;2.59;100.00;101617.47;6253567;28;20049;-73
2023/12/07 04:25:28;;;;;;;23.67;10.25;;;;;;;2.56;100.00;101619.22;6252890;28;20055;-73
2023/12/07 04:28:30;;;;;;;21.20;10.30;;;;;;;2.56;100.00;101619.22;6253907;28;20052;-74
2023/12/07 04:31:32;;;;;;;24.38;10.32;;;;;;;2.55;100.00;101613.19;6253376;28;20535;-74
2023/12/07 04:34:33;;;;;;;23.08;10.07;;;;;;;2.51;100.00;101612.31;6253417;28;20053;-74
2023/12/07 04:37:34;;;;;;;18.50;8.98;;;;;;;2.48;100.00;101608.88;6252521;28;20053;-74
2023/12/07 04:40:35;;;;;;;20.52;10.18;;;;;;;2.48;100.00;101614.94;6253286;28;20056;-74
2023/12/07 04:43:38;;;;;;;17.75;9.02;;;;;;;2.48;100.00;101612.34;6253002;28;20042;-74
2023/12/07 04:46:39;;;;;;;21.48;10.38;;;;;;;2.45;100.00;101607.19;6252854;28;20453;-74
2023/12/07 04:49:41;;;;;;;18.42;8.98;;;;;;;2.47;100.00;101617.53;6253003;28;20327;-74
2023/12/07 04:52:42;;;;;;;22.85;10.18;;;;;;;2.43;100.00;101616.69;6252376;28;20060;-74
2023/12/07 04:55:47;;;;;;;20.92;9.35;;;;;;;2.45;100.00;101614.06;6252271;28;20056;-74
2023/12/07 04:58:49;;;;;;;20.40;9.23;;;;;;;2.46;100.00;101618.41;6253024;28;20099;-74
2023/12/07 05:01:51;;;;;;;22.13;10.43;;;;;;;2.48;100.00;101619.25;6252965;28;20050;-74
2023/12/07 05:04:52;;;;;;;24.25;11.32;;;;;;;2.46;100.00;101618.41;6252548;28;20192;-74
2023/12/07 05:07:54;;;;;;;20.95;9.30;;;;;;;2.47;100.00;101622.72;6252692;28;20050;-73
2023/12/07 05:10:55;;;;;;;26.10;9.80;;;;;;;2.45;100.00;101622.75;6252687;28;20139;-73
2023/12/07 05:13:58;;;;;;;23.55;9.95;;;;;;;2.49;100.00;101624.44;6252488;28;20045;-74
2023/12/07 05:16:59;;;;;;;19.65;9.55;;;;;;;2.47;100.00;101620.13;6252781;28;20140;-73
2023/12/07 05:20:01;;;;;;;20.85;9.55;;;;;;;2.48;100.00;101617.53;6252177;28;20050;-74
2023/12/07 05:23:03;;;;;;;23.02;10.25;;;;;;;2.50;100.00;101618.38;6252054;28;20045;-73
2023/12/07 05:26:07;;;;;;;28.10;10.88;;;;;;;2.51;100.00;101620.09;6252313;28;20072;-73
2023/12/07 05:29:10;;;;;;;27.67;11.73;;;;;;;2.51;100.00;101627.88;6252501;28;20126;-74
2023/12/07 05:32:12;;;;;;;19.50;9.65;;;;;;;2.51;100.00;101620.09;6252190;28;20144;-74
2023/12/07 05:35:13;;;;;;;25.40;10.90;;;;;;;2.53;100.00;101622.69;6251727;28;20046;-74
2023/12/07 05:38:15;;;;;;;24.15;10.77;;;;;;;2.57;100.00;101629.56;6251565;28;20053;-74
2023/12/07 05:41:17;;;;;;;25.17;11.15;;;;;;;2.54;100.00;101630.47;6251967;28;20060;-74
2023/12/07 05:44:21;;;;;;;22.50;9.55;;;;;;;2.49;100.00;101634.81;6251785;28;20049;-74
2023/12/07 05:47:23;;;;;;;22.75;10.18;;;;;;;2.50;100.00;101638.28;6251619;28;20056;-75
2023/12/07 05:50:24;;;;;;;20.90;9.93;;;;;;;2.52;100.00;101636.53;6251213;28;20204;-73
2023/12/07 05:53:26;;;;;;;21.45;9.90;;;;;;;2.62;100.00;101640.78;6250749;28;20037;-74
2023/12/07 05:56:28;;;;;;;23.05;9.77;;;;;;;2.56;100.00;101642.56;6251301;28;20045;-73
2023/12/07 05:59:30;;;;;;;21.70;10.18;;;;;;;2.52;100.00;101636.53;6251357;28;20072;-73
2023/12/07 06:02:32;;;;;;;19.70;10.45;;;;;;;2.45;100.00;101634.81;6250683;28;20341;-74
2023/12/07 06:05:34;;;;;;;21.08;9.25;;;;;;;2.48;100.00;101637.41;6250924;28;20430;-74
2023/12/07 06:08:35;;;;;;;26.08;10.35;;;;;;;2.50;100.00;101633.97;6251166;28;20061;-74
2023/12/07 06:11:36;;;;;;;22.42;10.27;;;;;;;2.49;100.00;101640.00;6250970;28;20045;-73
2023/12/07 06:14:39;;;;;;;19.92;9.38;;;;;;;2.52;100.00;101639.13;6250290;28;20042;-73
2023/12/07 06:17:40;;;;;;;22.98;10.38;;;;;;;2.54;100.00;101638.25;6250822;28;20053;-75
2023/12/07 06:20:43;;;;;;;22.05;10.48;;;;;;;2.53;100.00;101639.09;6251255;28;20057;-73
2023/12/07 06:23:46;;;;;;;22.25;9.95;;;;;;;2.59;100.00;101643.41;6250690;28;20045;-74
2023/12/07 06:26:47;;;;;;;27.05;9.90;;;;;;;2.59;100.00;101647.72;6250037;28;20053;-74
2023/12/07 06:29:50;;;;;;;16.05;8.07;;;;;;;2.58;100.00;101651.19;6247712;28;20049;-74
2023/12/07 06:32:51;;;;;;;20.73;10.13;;;;;;;2.50;100.00;101651.25;6244317;28;20118;-73
2023/12/07 06:35:53;;;;;;;21.15;9.27;;;;;;;2.49;100.00;101650.38;6247985;28;20060;-74
2023/12/07 06:38:55;;;;;;;25.50;10.75;;;;;;;2.55;100.00;101657.28;6249785;28;20569;-74
2023/12/07 06:41:57;;;;;;;20.55;9.85;;;;;;;2.51;100.00;101666.81;6248714;28;20057;-74
2023/12/07 06:44:59;;;;;;;22.63;9.90;;;;;;;2.54;100.00;101669.41;6246966;28;20052;-74
2023/12/07 06:48:01;;;;;;;24.08;9.90;;;;;;;2.53;100.00;101661.59;6247939;28;20056;-74
2023/12/07 06:51:03;;;;;;;21.80;9.02;;;;;;;2.54;100.00;101664.22;6249974;28;20129;-73
2023/12/07 06:54:05;;;;;;;24.23;9.93;;;;;;;2.55;100.00;101665.06;6248499;28;20037;-74
2023/12/07 06:57:07;;;;;;;27.77;11.88;;;;;;;2.45;100.00;101671.16;6244524;28;20180;-74
2023/12/07 07:00:11;;;;;;;24.40;10.18;;;;;;;2.45;100.00;101669.44;6244645;28;20128;-74
2023/12/07 07:03:13;;;;;;;24.33;9.98;;;;;;;2.44;100.00;101669.44;6242564;28;20132;-74
2023/12/07 07:06:14;;;;;;;22.00;10.63;;;;;;;2.47;100.00;101667.69;6249762;28;20335;-74
2023/12/07 07:09:15;;;;;;;22.27;10.45;;;;;;;2.48;100.00;101673.72;6249995;28;20052;-74
2023/12/07 07:12:17;;;;;;;24.45;11.70;;;;;;;2.45;100.00;101674.63;6246210;28;20130;-74
2023/12/07 07:15:20;;;;;;;26.45;10.63;;;;;;;2.49;100.00;101680.63;6247758;28;20045;-74
2023/12/07 07:18:23;;;;;;;24.85;10.43;;;;;;;2.50;100.00;101685.00;6249645;28;20053;-74
2023/12/07 07:21:25;;;;;;;25.83;11.32;;;;;;;2.48;100.00;101674.59;6249806;28;20183;-74
2023/12/07 07:24:26;;;;;;;24.38;9.85;;;;;;;2.52;100.00;101668.53;6248410;28;20350;-74
2023/12/07 07:27:27;;;;;;;20.67;8.95;;;;;;;2.52;100.00;101681.50;6248802;28;20142;-74
2023/12/07 07:30:30;;;;;;;21.67;9.32;;;;;;;2.47;100.00;101675.47;6249445;28;20056;-74
2023/12/07 07:33:31;;;;;;;22.08;9.80;;;;;;;2.47;100.00;101685.84;6249034;28;20046;-74
2023/12/07 07:36:33;;;;;;;26.67;10.43;;;;;;;2.52;100.00;101680.63;6249390;28;20052;-74
2023/12/07 07:39:34;;;;;;;24.83;9.88;;;;;;;2.51;100.00;101692.75;6249515;28;20049;-74
2023/12/07 07:42:36;;;;;;;22.92;10.60;;;;;;;2.49;100.00;101683.22;6244058;28;20049;-73
2023/12/07 07:45:38;;;;;;;27.05;10.55;;;;;;;2.48;100.00;101681.53;6249381;28;20346;-74
2023/12/07 07:48:40;;;;;;;23.40;10.32;;;;;;;2.53;100.00;101687.53;6249752;28;20085;-75
2023/12/07 07:51:41;;;;;;;25.58;11.05;;;;;;;2.53;100.00;101693.59;6249603;28;20524;-74
2023/12/07 07:54:43;;;;;;;19.98;9.60;;;;;;;2.51;100.00;101700.53;6249488;28;20042;-74
2023/12/07 07:57:44;;;;;;;19.08;8.07;;;;;;;2.56;100.00;101692.72;6249079;28;20060;-74
2023/12/07 08:00:47;;;;;;;24.15;10.05;;;;;;;2.62;100.00;101702.19;6252913;28;20399;-73
2023/12/07 08:03:48;;;;;;;23.23;9.70;;;;;;;2.61;100.00;101697.91;6253542;28;20175;-75
2023/12/07 08:06:50;;;;;;;22.17;9.90;;;;;;;2.62;100.00;101704.78;6247075;28;20049;-73
2023/12/07 08:09:51;;;;;;;20.20;9.93;;;;;;;2.68;100.00;101702.16;6244878;28;20046;-72
2023/12/07 08:12:52;;;;;;;23.65;9.90;;;;;;;2.75;100.00;101698.69;6252320;28;20056;-74
2023/12/07 08:15:55;;;;;;;19.83;8.32;;;;;;;2.65;100.00;101704.78;6245383;28;20346;-73
2023/12/07 08:18:58;;;;;;;26.33;9.40;;;;;;;2.72;100.00;101709.91;6253600;28;20436;-75
2023/12/07 08:21:59;;;;;;;20.48;8.95;;;;;;;2.69;100.00;101712.56;6253813;28;20050;-73
2023/12/07 08:25:01;;;;;;;20.92;9.35;;;;;;;2.68;100.00;101718.63;6252472;28;20045;-72
2023/12/07 08:28:02;;;;;;;18.08;8.85;;;;;;;2.64;100.00;101716.06;6253741;28;20060;-72
2023/12/07 08:31:06;;;;;;;19.33;9.15;;;;;;;2.72;100.00;101709.06;6253491;28;20077;-73
2023/12/07 08:34:07;;;;;;;18.83;8.25;;;;;;;2.69;100.00;101717.75;6253041;28;20361;-73
2023/12/07 08:37:09;;;;;;;15.82;8.40;;;;;;;2.70;100.00;101711.69;6247592;28;20045;-74
2023/12/07 08:40:15;;;;;;;18.83;8.52;;;;;;;2.71;100.00;101709.94;6249985;28;20050;-72
2023/12/07 08:43:16;;;;;;;19.50;8.07;;;;;;;2.73;100.00;101706.47;6252833;28;20133;-73
2023/12/07 08:46:19;;;;;;;16.92;8.93;;;;;;;2.77;100.00;101723.75;6248708;28;20050;-74
2023/12/07 08:49:20;;;;;;;18.00;8.80;;;;;;;2.80;100.00;101720.28;6252944;28;20052;-74
2023/12/07 08:52:21;;;;;;;19.65;9.00;;;;;;;2.74;100.00;101720.31;6251916;28;20049;-74
2023/12/07 08:55:23;;;;;;;18.27;8.90;;;;;;;2.80;100.00;101715.06;6252699;28;20046;-73
2023/12/07 08:58:24;;;;;;;17.42;8.05;;;;;;;2.82;100.00;101708.16;6253297;28;20069;-73
2023/12/07 09:01:27;;;;;;;20.58;9.45;;;;;;;2.94;100.00;101717.59;6252782;28;20472;-73
2023/12/07 09:04:28;;;;;;;20.95;9.20;;;;;;;2.94;100.00;101715.00;6252448;28;20053;-75
2023/12/07 09:07:30;;;;;;;18.10;8.32;;;;;;;2.87;100.00;101726.31;6250244;28;20391;-74
2023/12/07 09:10:31;;;;;;;18.75;8.60;;;;;;;2.83;100.00;101730.66;6248519;28;20457;-73
2023/12/07 09:13:32;;;;;;;18.30;8.40;;;;;;;2.80;100.00;101731.50;6251495;28;20053;-73
2023/12/07 09:16:35;;;;;;;17.88;7.65;;;;;;;2.88;100.00;101730.63;6250206;28;20049;-73
2023/12/07 09:19:37;;;;;;;16.10;8.20;;;;;;;2.84;100.00;101739.28;6251606;28;20127;-73
2023/12/07 09:22:38;;;;;;;14.88;7.90;;;;;;;2.85;100.00;101747.06;6251991;28;20052;-74
2023/12/07 09:25:40;;;;;;;17.50;7.50;;;;;;;2.84;100.00;101740.16;6251468;28;20123;-74
2023/12/07 09:28:42;;;;;;;18.92;8.00;;;;;;;2.92;100.00;101745.31;6251617;28;20053;-73
2023/12/07 09:31:44;;;;;;;13.48;6.80;;;;;;;2.93;100.00;101744.44;6251338;28;20045;-75
2023/12/07 09:34:46;;;;;;;19.27;9.55;;;;;;;2.95;100.00;101748.75;6251586;28;20050;-74
2023/12/07 09:37:47;;;;;;;20.27;8.35;;;;;;;2.99;100.00;101755.63;6251105;28;20049;-75
2023/12/07 09:40:53;;;;;;;19.35;8.88;;;;;;;2.97;100.00;101754.78;6249667;28;20064;-74
2023/12/07 09:43:55;;;;;;;22.25;8.93;;;;;;;2.95;100.00;101747.88;6247480;28;20049;-74
2023/12/07 09:46:58;;;;;;;20.48;8.73;;;;;;;2.99;100.00;101736.59;6251734;28;20049;-74
2023/12/07 09:49:59;;;;;;;21.08;9.20;;;;;;;3.04;100.00;101730.53;6249987;28;20071;-74
2023/12/07 09:53:01;;;;;;;26.85;9.40;;;;;;;3.07;100.00;101732.22;6248009;28;20056;-76
2023/12/07 09:56:02;;;;;;;18.52;8.40;;;;;;;3.11;100.00;101730.47;6251282;28;20046;-76
2023/12/07 09:59:05;;;;;;;24.73;9.68;;;;;;;3.13;100.00;101739.09;6251115;28;20061;-74
2023/12/07 10:02:08;;;;;;;26.90;9.73;;;;;;;3.20;100.00;101735.59;6251103;28;20053;-75
2023/12/07 10:05:13;;;;;;;23.48;9.52;;;;;;;3.16;100.00;101742.56;6250068;28;20127;-73
2023/12/07 10:08:26;;;;;;;22.48;10.38;;;;;;;3.09;100.00;101740.88;6243043;28;20077;-74
2023/12/07 10:11:27;;;;;;;21.73;9.80;;;;;;;3.17;100.00;101743.41;6244948;28;20060;-74
2023/12/07 10:14:29;;;;;;;24.58;10.73;;;;;;;3.21;100.00;101743.38;6242451;28;20042;-72
2023/12/07 10:17:49;;;;;;;28.83;11.73;;;;;;;3.17;100.00;101746.00;6233068;28;20056;-74
2023/12/07 10:20:50;;;;;;;26.95;10.80;;;;;;;3.18;100.00;101742.53;6250046;28;20045;-76
2023/12/07 10:23:53;;;;;;;27.35;11.60;;;;;;;3.15;100.00;101737.38;6250223;28;20438;-76
2023/12/07 10:26:56;;;;;;;27.77;11.90;;;;;;;3.18;100.00;101739.94;6251052;28;20041;-74
2023/12/07 10:29:59;;;;;;;21.48;10.10;;;;;;;3.24;100.00;101732.97;6250745;28;20053;-74
2023/12/07 10:33:03;;;;;;;26.48;11.23;;;;;;;3.26;100.00;101726.03;6249819;28;20045;-74
2023/12/07 10:36:06;;;;;;;26.15;10.90;;;;;;;3.28;100.00;101724.28;6250227;28;20049;-75
2023/12/07 10:39:07;;;;;;;26.52;11.00;;;;;;;3.29;100.00;101722.56;6248512;28;20449;-74
2023/12/07 10:42:11;;;;;;;30.05;12.95;;;;;;;3.34;100.00;101725.97;6248369;28;20124;-74
2023/12/07 10:45:15;;;;;;;26.80;12.13;;;;;;;3.28;100.00;101719.09;6239833;28;20049;-75
2023/12/07 10:48:19;;;;;;;29.67;12.68;;;;;;;3.31;100.00;101720.78;6250338;28;20072;-75
2023/12/07 10:51:32;;;;;;;28.15;12.20;;;;;;;3.38;100.00;101714.69;6250083;28;20073;-76
2023/12/07 10:54:42;;;;;;;27.95;12.20;;;;;;;3.46;100.00;101712.03;6250311;28;20450;-74
2023/12/07 10:57:45;;;;;;;30.20;11.80;;;;;;;3.47;100.00;101716.34;6250313;28;20056;-73
2023/12/07 11:00:48;;;;;;;28.33;11.80;;;;;;;3.46;100.00;101710.28;6249873;28;20050;-73
2023/12/07 11:03:54;;;;;;;29.52;12.40;;;;;;;3.51;100.00;101705.06;6249878;28;20061;-73
2023/12/07 11:07:00;;;;;;;28.25;12.93;;;;;;;3.43;100.00;101707.72;6250127;28;20046;-73
2023/12/07 11:10:12;;;;;;;32.22;13.00;;;;;;;3.47;100.00;101703.34;6249724;28;20052;-75
2023/12/07 11:13:19;;;;;;;28.92;12.52;;;;;;;3.54;100.00;101705.00;6250045;28;20528;-73
2023/12/07 11:16:29;;;;;;;33.03;13.18;;;;;;;3.54;100.00;101700.69;6250137;28;20045;-73
2023/12/07 11:19:50;;;;;;;28.77;12.25;;;;;;;3.53;100.00;101701.56;6249600;28;20342;-74
2023/12/07 11:22:52;;;;;;;33.97;15.02;;;;;;;3.67;100.00;101695.38;6249942;28;20331;-72
2023/12/07 11:25:54;;;;;;;33.22;13.77;;;;;;;3.74;100.00;101689.25;6249762;28;20520;-72
2023/12/07 11:28:56;;;;;;;30.98;12.73;;;;;;;3.71;100.00;101684.91;6249589;28;20132;-73
2023/12/07 11:32:01;;;;;;;33.17;14.50;;;;;;;3.75;100.00;101677.97;6249768;28;20049;-72
2023/12/07 11:35:05;;;;;;;29.55;12.75;;;;;;;3.78;100.00;101678.81;6252173;28;20047;-73
2023/12/07 11:38:11;;;;;;;30.33;12.18;;;;;;;3.77;100.00;101673.59;6244060;28;20532;-74
2023/12/07 11:41:12;;;;;;;38.00;14.10;;;;;;;3.75;100.00;101665.81;6253672;28;20409;-73
2023/12/07 11:44:14;;;;;;;29.40;13.10;;;;;;;3.76;100.00;101666.69;6254259;28;20061;-73
2023/12/07 11:47:17;;;;;;;29.73;13.95;;;;;;;3.75;100.00;101665.81;6254143;28;20356;-73
2023/12/07 11:50:20;;;;;;;30.55;13.25;;;;;;;3.82;100.00;101664.03;6253211;28;20075;-77
2023/12/07 11:53:23;;;;;;;27.67;11.02;;;;;;;3.80;100.00;101665.78;6251201;28;20145;-73
2023/12/07 11:56:24;;;;;;;32.50;12.60;;;;;;;3.79;100.00;101659.72;6252127;28;20460;-73
2023/12/07 11:59:25;;;;;;;37.28;13.85;;;;;;;3.81;100.00;101664.88;6254107;28;20076;-73
2023/12/07 12:02:27;;;;;;;29.38;12.48;;;;;;;3.84;100.00;101664.00;6254079;28;20130;-72
2023/12/07 12:05:29;;;;;;;29.23;11.85;;;;;;;3.85;100.00;101661.38;6253836;28;20437;-73
2023/12/07 12:08:32;;;;;;;36.58;13.65;;;;;;;3.86;100.00;101652.72;6253126;28;20453;-74
2023/12/07 12:11:33;;;;;;;31.77;12.65;;;;;;;3.84;100.00;101654.47;6253840;28;20046;-73
2023/12/07 12:14:35;;;;;;;31.98;13.93;;;;;;;3.92;100.00;101662.19;6253308;28;20350;-73
2023/12/07 12:17:36;;;;;;;31.20;12.45;;;;;;;3.90;100.00;101662.19;6252381;28;20054;-72
2023/12/07 12:20:39;;;;;;;31.23;13.95;;;;;;;3.92;100.00;101660.44;6253783;28;20041;-73
2023/12/07 12:23:42;;;;;;;28.20;12.18;;;;;;;3.98;100.00;101662.97;6253153;28;20056;-74
2023/12/07 12:26:44;;;;;;;29.92;12.65;;;;;;;4.05;100.00;101666.38;6253535;28;20057;-75
2023/12/07 12:29:46;;;;;;;32.50;12.20;;;;;;;4.02;100.00;101666.41;6251350;28;20049;-73
2023/12/07 12:32:48;;;;;;;29.75;12.73;;;;;;;4.05;100.00;101661.19;6251827;28;20053;-73
2023/12/07 12:36:03;;;;;;;28.60;11.75;;;;;;;4.05;100.00;101655.97;6253355;28;20056;-73
2023/12/07 12:39:05;;;;;;;28.63;12.80;;;;;;;4.02;100.00;101646.44;6251029;28;20168;-73
2023/12/07 12:42:06;;;;;;;32.60;13.05;;;;;;;4.04;100.00;101646.44;6253236;28;20504;-72
2023/12/07 12:45:10;;;;;;;32.47;13.00;;;;;;;3.93;100.00;101636.16;6251664;28;20053;-72
2023/12/07 12:48:12;;;;;;;29.08;12.43;;;;;;;3.94;100.00;101639.63;6251863;28;20060;-72
2023/12/07 12:51:14;;;;;;;32.03;13.43;;;;;;;4.03;100.00;101636.91;6252757;28;20060;-72
2023/12/07 12:54:16;;;;;;;38.42;13.82;;;;;;;4.09;100.00;101634.25;6244280;28;20049;-72
2023/12/07 12:57:18;;;;;;;29.13;11.07;;;;;;;4.12;100.00;101639.41;6252974;28;20060;-72
2023/12/07 13:00:20;;;;;;;31.63;12.38;;;;;;;4.12;100.00;101635.94;6250437;28;20052;-72
2023/12/07 13:03:21;;;;;;;28.40;11.63;;;;;;;4.13;100.00;101630.72;6252628;28;20053;-73
2023/12/07 13:06:24;;;;;;;37.47;14.05;;;;;;;4.14;100.00;101629.00;6252491;28;20629;-73
2023/12/07 13:09:26;;;;;;;34.22;12.65;;;;;;;4.17;100.00;101619.38;6253317;28;20056;-72
2023/12/07 13:12:27;;;;;;;37.60;13.70;;;;;;;4.22;100.00;101619.31;6252150;28;20476;-73
2023/12/07 13:15:29;;;;;;;38.22;14.05;;;;;;;4.22;100.00;101614.97;6252496;28;20057;-72
2023/12/07 13:18:31;;;;;;;37.72;13.80;;;;;;;4.21;100.00;101610.66;6252294;28;20449;-73
2023/12/07 13:21:34;;;;;;;38.13;14.25;;;;;;;4.26;100.00;101610.59;6252204;28;20053;-73
2023/12/07 13:24:36;;;;;;;41.25;14.23;;;;;;;4.19;100.00;101609.84;6251323;28;20057;-73
2023/12/07 13:27:37;;;;;;;33.97;14.10;;;;;;;4.16;100.00;101607.28;6251903;28;20049;-74
2023/12/07 13:30:39;;;;;;;43.03;13.95;;;;;;;4.15;100.00;101602.09;6251987;28;20058;-72
2023/12/07 13:33:40;;;;;;;36.63;12.18;;;;;;;4.21;100.00;101592.47;6251076;28;20430;-72
2023/12/07 13:36:43;;;;;;;32.47;13.73;;;;;;;4.20;100.00;101592.50;6251183;28;20045;-73
2023/12/07 13:39:44;;;;;;;31.80;12.63;;;;;;;4.20;100.00;101577.75;6251048;28;20054;-73
2023/12/07 13:42:46;;;;;;;36.03;13.63;;;;;;;4.26;100.00;101568.97;6251246;28;20053;-73
2023/12/07 13:45:47;;;;;;;39.35;12.90;;;;;;;4.29;100.00;101577.59;6250642;28;20045;-73
2023/12/07 13:48:49;;;;;;;36.97;11.68;;;;;;;4.38;100.00;101575.75;6251861;28;20446;-73
2023/12/07 13:51:51;;;;;;;33.55;12.60;;;;;;;4.32;100.00;101574.97;6251734;28;20060;-73